Observations for EDINBURGH AIRPORT, United Kingdom (EGPH)

EGPH 221220Z 05008KT 5000 HZ SCT004 BKN021 16/15 Q1018  
EGPH 221150Z 05009KT 5000 BR SCT003 BKN023 15/15 Q1018  
EGPH 221120Z 06009KT 5000 -DZ SCT003 BKN026 15/15 Q1019 
EGPH 221050Z 05007KT 5000 -DZ SCT003 BKN022 15/14 Q1019 
EGPH 221020Z 05007KT 5000 -DZ SCT003 BKN018 15/14 Q1019 
EGPH 220950Z 05008KT 6000 FEW002 BKN004 15/14 Q1019 
EGPH 220920Z 05008KT 5000 BR BKN002 15/14 Q1019 
EGPH 220850Z 04006KT 5000 BR BKN002 14/14 Q1019 
EGPH 220820Z 06006KT 4500 BR BKN002 14/14 Q1019 
EGPH 220750Z 05006KT 3500 BR BKN002 14/14 Q1019 
EGPH 220720Z 06005KT 3500 BR BKN002 14/14 Q1019 
EGPH 220650Z 07006KT 3000 BR OVC001 14/14 Q1019 
EGPH 220620Z 06005KT 2500 BR OVC001 14/14 Q1019 
EGPH 220550Z 07005KT 3500 BR OVC002 14/13 Q1019 
EGPH 220520Z 07006KT 4000 BR OVC002 14/13 Q1019 
EGPH 220450Z 07005KT 5000 BR OVC003 14/13 Q1019 
EGPH 220420Z 06007KT 8000 OVC004 14/13 Q1019
EGPH 220350Z 08007KT 9000 OVC005 14/13 Q1019
EGPH 220320Z 07005KT 9000 OVC005 14/13 Q1019
EGPH 220250Z 08006KT 9000 OVC005 14/13 Q1019
EGPH 220220Z 10004KT 9999 OVC005 14/13 Q1020
EGPH 220150Z 06004KT 7000 -RA BKN006 14/13 Q1020
EGPH 220120Z 04004KT 7000 -RA BKN005 14/13 Q1020
EGPH 220050Z 07006KT 6000 BKN005 14/13 Q1019
EGPH 220020Z 08005KT 6000 BKN006 14/13 Q1019
EGPH 212350Z 07005KT 9999 SCT006 14/13 Q1019
EGPH 212320Z AUTO 08005KT 060V120 9999 FEW007 14/13 Q1019   
EGPH 212250Z 07003KT CAVOK 14/12 Q1020  
EGPH 212220Z 10004KT 020V140 9999 FEW048 14/13 Q1020
EGPH 212150Z 09004KT 9999 SCT046 14/13 Q1020
EGPH 212120Z 07004KT CAVOK 14/13 Q1020  
EGPH 212050Z 06004KT 9999 BKN046 13/12 Q1020
EGPH 212020Z 05005KT 9999 BKN047 14/13 Q1020
EGPH 211950Z 04005KT 9999 BKN033 14/13 Q1019
EGPH 211920Z 03005KT 9999 BKN035 14/13 Q1019
EGPH 211850Z 05005KT 9999 BKN036 14/13 Q1019
EGPH 211820Z 04004KT 9999 BKN038 14/13 Q1019
EGPH 211750Z 04005KT 9999 BKN038 14/13 Q1019
EGPH 211720Z 04005KT 9999 BKN038 15/13 Q1019
EGPH 211650Z 06006KT 9999 BKN040 15/13 Q1019
EGPH 211620Z 06006KT 9999 BKN049 16/13 Q1020
EGPH 211550Z 06007KT 9999 SCT039 16/12 Q1020
EGPH 211520Z 07007KT 9999 FEW039 17/11 Q1020
EGPH 211450Z 06006KT 040V100 9999 FEW039 17/12 Q1020
EGPH 211420Z 06007KT 9999 FEW037 16/12 Q1020
EGPH 211350Z 07007KT 9999 BKN036 16/11 Q1020
EGPH 211320Z 05007KT 9999 FEW039 16/10 Q1020
EGPH 211250Z 04006KT 9999 FEW035 16/11 Q1020
EGPH 211220Z 05006KT 010V080 9999 FEW032 16/11 Q1020
EGPH 211150Z 02004KT 340V060 9999 FEW030 16/11 Q1021